sensor_id;sensor_type;location;lat;lon;timestamp;pressure;altitude;pressure_sealevel;temperature;humidity
64614;BME280;51025;37.772;-122.432;2023-08-07T00:01:25;100859.93;;;24.31;26.82
64614;BME280;51025;37.772;-122.432;2023-08-07T00:03:53;100863.46;;;24.52;26.64
64614;BME280;51025;37.772;-122.432;2023-08-07T00:06:21;100863.02;;;23.33;27.23
64614;BME280;51025;37.772;-122.432;2023-08-07T00:08:50;100855.76;;;25.04;26.79
64614;BME280;51025;37.772;-122.432;2023-08-07T00:11:18;100860.73;;;23.55;27.13
64614;BME280;51025;37.772;-122.432;2023-08-07T00:13:46;100864.13;;;24.60;27.22
64614;BME280;51025;37.772;-122.432;2023-08-07T00:16:15;100863.34;;;23.77;27.05
64614;BME280;51025;37.772;-122.432;2023-08-07T00:18:43;100861.25;;;24.37;26.90
64614;BME280;51025;37.772;-122.432;2023-08-07T00:21:12;100854.52;;;23.60;26.89
64614;BME280;51025;37.772;-122.432;2023-08-07T00:23:41;100857.88;;;24.24;27.04
64614;BME280;51025;37.772;-122.432;2023-08-07T00:26:10;100854.66;;;24.20;26.75
64614;BME280;51025;37.772;-122.432;2023-08-07T00:28:38;100853.06;;;24.41;26.85
64614;BME280;51025;37.772;-122.432;2023-08-07T00:31:07;100852.02;;;24.20;26.78
64614;BME280;51025;37.772;-122.432;2023-08-07T00:33:35;100847.27;;;24.50;26.76
64614;BME280;51025;37.772;-122.432;2023-08-07T00:36:05;100846.09;;;24.13;27.07
64614;BME280;51025;37.772;-122.432;2023-08-07T00:38:33;100842.79;;;24.55;26.69
64614;BME280;51025;37.772;-122.432;2023-08-07T00:41:02;100841.99;;;24.28;26.92
64614;BME280;51025;37.772;-122.432;2023-08-07T00:43:30;100837.59;;;24.52;26.76
64614;BME280;51025;37.772;-122.432;2023-08-07T00:45:59;100841.01;;;24.06;27.16
64614;BME280;51025;37.772;-122.432;2023-08-07T00:48:27;100842.40;;;24.17;26.74
64614;BME280;51025;37.772;-122.432;2023-08-07T00:50:56;100837.99;;;24.49;26.77
64614;BME280;51025;37.772;-122.432;2023-08-07T00:53:25;100841.52;;;24.37;26.88
64614;BME280;51025;37.772;-122.432;2023-08-07T00:55:53;100847.85;;;24.30;26.92
64614;BME280;51025;37.772;-122.432;2023-08-07T00:58:22;100843.02;;;23.24;27.15
64614;BME280;51025;37.772;-122.432;2023-08-07T01:00:50;100847.62;;;23.96;27.15
64614;BME280;51025;37.772;-122.432;2023-08-07T01:03:18;100844.66;;;23.52;26.88
64614;BME280;51025;37.772;-122.432;2023-08-07T01:05:47;100851.03;;;24.39;26.78
64614;BME280;51025;37.772;-122.432;2023-08-07T01:08:15;100852.85;;;22.81;26.86
64614;BME280;51025;37.772;-122.432;2023-08-07T01:11:02;100852.34;;;23.63;27.36
64614;BME280;51025;37.772;-122.432;2023-08-07T01:13:40;100848.80;;;23.68;27.29
64614;BME280;51025;37.772;-122.432;2023-08-07T01:16:13;100844.06;;;23.40;27.27
64614;BME280;51025;37.772;-122.432;2023-08-07T01:18:43;100850.09;;;23.57;27.37
64614;BME280;51025;37.772;-122.432;2023-08-07T01:21:18;100841.36;;;23.35;26.99
64614;BME280;51025;37.772;-122.432;2023-08-07T01:23:47;100843.71;;;23.94;27.07
64614;BME280;51025;37.772;-122.432;2023-08-07T01:26:16;100844.48;;;22.51;27.36
64614;BME280;51025;37.772;-122.432;2023-08-07T01:28:52;100842.58;;;23.96;27.04
64614;BME280;51025;37.772;-122.432;2023-08-07T01:31:26;100840.13;;;23.12;27.46
64614;BME280;51025;37.772;-122.432;2023-08-07T01:33:59;100840.87;;;24.02;26.99
64614;BME280;51025;37.772;-122.432;2023-08-07T01:36:30;100835.05;;;23.57;27.43
64614;BME280;51025;37.772;-122.432;2023-08-07T01:39:00;100834.02;;;23.70;27.35
64614;BME280;51025;37.772;-122.432;2023-08-07T01:41:29;100835.05;;;23.71;27.27
64614;BME280;51025;37.772;-122.432;2023-08-07T01:43:58;100844.29;;;23.60;27.36
64614;BME280;51025;37.772;-122.432;2023-08-07T01:46:27;100835.94;;;23.76;27.19
64614;BME280;51025;37.772;-122.432;2023-08-07T01:48:55;100841.46;;;23.55;27.40
64614;BME280;51025;37.772;-122.432;2023-08-07T01:51:24;100840.43;;;23.27;27.31
64614;BME280;51025;37.772;-122.432;2023-08-07T01:53:52;100837.53;;;23.49;27.40
64614;BME280;51025;37.772;-122.432;2023-08-07T01:56:20;100832.08;;;23.65;27.26
64614;BME280;51025;37.772;-122.432;2023-08-07T01:58:48;100830.05;;;23.38;27.46
64614;BME280;51025;37.772;-122.432;2023-08-07T02:01:16;100833.92;;;23.27;27.54
64614;BME280;51025;37.772;-122.432;2023-08-07T02:03:45;100834.50;;;23.63;27.21
64614;BME280;51025;37.772;-122.432;2023-08-07T02:06:14;100836.11;;;22.85;27.17
64614;BME280;51025;37.772;-122.432;2023-08-07T02:08:42;100836.77;;;23.57;27.21
64614;BME280;51025;37.772;-122.432;2023-08-07T02:11:11;100838.19;;;22.75;27.28
64614;BME280;51025;37.772;-122.432;2023-08-07T02:13:39;100837.03;;;23.60;27.19
64614;BME280;51025;37.772;-122.432;2023-08-07T02:16:08;100834.42;;;22.47;27.51
64614;BME280;51025;37.772;-122.432;2023-08-07T02:18:36;100834.87;;;23.91;27.00
64614;BME280;51025;37.772;-122.432;2023-08-07T02:21:05;100840.22;;;24.22;26.94
64614;BME280;51025;37.772;-122.432;2023-08-07T02:23:32;100842.78;;;23.42;27.34
64614;BME280;51025;37.772;-122.432;2023-08-07T02:26:01;100854.13;;;24.19;27.08
64614;BME280;51025;37.772;-122.432;2023-08-07T02:28:29;100853.63;;;23.97;26.99
64614;BME280;51025;37.772;-122.432;2023-08-07T02:30:57;100852.11;;;24.16;27.13
64614;BME280;51025;37.772;-122.432;2023-08-07T02:33:25;100851.73;;;23.85;26.77
64614;BME280;51025;37.772;-122.432;2023-08-07T02:35:53;100850.70;;;24.10;27.19
64614;BME280;51025;37.772;-122.432;2023-08-07T02:38:22;100845.75;;;24.19;27.11
64614;BME280;51025;37.772;-122.432;2023-08-07T02:40:50;100841.14;;;24.71;26.77
64614;BME280;51025;37.772;-122.432;2023-08-07T02:43:18;100841.64;;;23.91;26.77
64614;BME280;51025;37.772;-122.432;2023-08-07T02:45:46;100844.67;;;23.97;27.34
64614;BME280;51025;37.772;-122.432;2023-08-07T02:48:15;100842.25;;;24.23;27.21
64614;BME280;51025;37.772;-122.432;2023-08-07T02:50:43;100843.66;;;23.87;27.52
64614;BME280;51025;37.772;-122.432;2023-08-07T02:53:12;100845.38;;;23.02;27.60
64614;BME280;51025;37.772;-122.432;2023-08-07T02:55:42;100843.46;;;23.75;27.68
64614;BME280;51025;37.772;-122.432;2023-08-07T02:58:11;100842.30;;;23.62;27.27
64614;BME280;51025;37.772;-122.432;2023-08-07T03:00:41;100848.40;;;24.46;27.21
64614;BME280;51025;37.772;-122.432;2023-08-07T03:03:09;100852.33;;;23.64;27.55
64614;BME280;51025;37.772;-122.432;2023-08-07T03:05:38;100852.16;;;24.07;27.51
64614;BME280;51025;37.772;-122.432;2023-08-07T03:08:08;100848.10;;;24.40;27.24
64614;BME280;51025;37.772;-122.432;2023-08-07T03:10:36;100850.82;;;24.03;27.27
64614;BME280;51025;37.772;-122.432;2023-08-07T03:13:04;100849.61;;;24.54;27.16
64614;BME280;51025;37.772;-122.432;2023-08-07T03:15:33;100849.26;;;24.25;27.35
64614;BME280;51025;37.772;-122.432;2023-08-07T03:18:02;100850.69;;;24.21;27.44
64614;BME280;51025;37.772;-122.432;2023-08-07T03:20:30;100851.69;;;23.64;27.60
64614;BME280;51025;37.772;-122.432;2023-08-07T03:22:58;100849.74;;;24.22;27.39
64614;BME280;51025;37.772;-122.432;2023-08-07T03:25:27;100851.45;;;24.01;27.34
64614;BME280;51025;37.772;-122.432;2023-08-07T03:27:55;100850.04;;;24.01;27.61
64614;BME280;51025;37.772;-122.432;2023-08-07T03:30:24;100853.34;;;23.42;27.46
64614;BME280;51025;37.772;-122.432;2023-08-07T03:32:52;100851.92;;;24.66;27.02
64614;BME280;51025;37.772;-122.432;2023-08-07T03:35:21;100852.66;;;24.45;27.24
64614;BME280;51025;37.772;-122.432;2023-08-07T03:37:49;100855.11;;;23.97;27.62
64614;BME280;51025;37.772;-122.432;2023-08-07T03:40:18;100857.68;;;23.57;27.66
64614;BME280;51025;37.772;-122.432;2023-08-07T03:42:46;100854.51;;;24.88;26.90
64614;BME280;51025;37.772;-122.432;2023-08-07T03:45:15;100853.50;;;22.81;27.34
64614;BME280;51025;37.772;-122.432;2023-08-07T03:47:44;100854.28;;;24.40;27.24
64614;BME280;51025;37.772;-122.432;2023-08-07T03:50:13;100849.41;;;23.09;27.66
64614;BME280;51025;37.772;-122.432;2023-08-07T03:52:41;100850.98;;;24.01;27.62
64614;BME280;51025;37.772;-122.432;2023-08-07T03:55:10;100855.02;;;23.09;27.69
64614;BME280;51025;37.772;-122.432;2023-08-07T03:57:39;100855.54;;;23.54;27.69
64614;BME280;51025;37.772;-122.432;2023-08-07T04:00:09;100861.10;;;23.62;27.58
64614;BME280;51025;37.772;-122.432;2023-08-07T04:02:38;100864.37;;;23.95;27.58
64614;BME280;51025;37.772;-122.432;2023-08-07T04:05:07;100865.16;;;23.18;27.59
64614;BME280;51025;37.772;-122.432;2023-08-07T04:07:35;100864.17;;;24.21;27.42
64614;BME280;51025;37.772;-122.432;2023-08-07T04:10:05;100866.35;;;23.80;27.73
64614;BME280;51025;37.772;-122.432;2023-08-07T04:12:33;100867.78;;;23.42;27.74
64614;BME280;51025;37.772;-122.432;2023-08-07T04:15:01;100873.95;;;23.94;27.60
64614;BME280;51025;37.772;-122.432;2023-08-07T04:17:30;100881.08;;;23.84;27.68
64614;BME280;51025;37.772;-122.432;2023-08-07T04:19:58;100879.43;;;23.84;27.65
64614;BME280;51025;37.772;-122.432;2023-08-07T04:22:26;100880.99;;;23.47;27.64
64614;BME280;51025;37.772;-122.432;2023-08-07T04:24:54;100879.05;;;23.91;27.56
64614;BME280;51025;37.772;-122.432;2023-08-07T04:27:22;100877.44;;;23.29;27.41
64614;BME280;51025;37.772;-122.432;2023-08-07T04:29:50;100879.21;;;24.02;27.37
64614;BME280;51025;37.772;-122.432;2023-08-07T04:32:19;100886.97;;;23.56;27.45
64614;BME280;51025;37.772;-122.432;2023-08-07T04:34:47;100893.05;;;23.92;27.51
64614;BME280;51025;37.772;-122.432;2023-08-07T04:37:15;100895.64;;;22.44;27.44
64614;BME280;51025;37.772;-122.432;2023-08-07T04:39:44;100899.29;;;24.10;27.28
64614;BME280;51025;37.772;-122.432;2023-08-07T04:42:12;100901.47;;;23.11;27.48
64614;BME280;51025;37.772;-122.432;2023-08-07T04:44:40;100900.98;;;23.93;27.39
64614;BME280;51025;37.772;-122.432;2023-08-07T04:47:08;100903.84;;;23.17;27.41
64614;BME280;51025;37.772;-122.432;2023-08-07T04:49:36;100906.18;;;23.67;27.27
64614;BME280;51025;37.772;-122.432;2023-08-07T04:52:05;100905.98;;;23.63;27.33
64614;BME280;51025;37.772;-122.432;2023-08-07T04:54:34;100908.89;;;23.99;27.39
64614;BME280;51025;37.772;-122.432;2023-08-07T04:57:04;100906.68;;;23.54;27.41
64614;BME280;51025;37.772;-122.432;2023-08-07T04:59:32;100905.78;;;23.48;27.15
64614;BME280;51025;37.772;-122.432;2023-08-07T05:02:00;100903.56;;;23.86;27.33
64614;BME280;51025;37.772;-122.432;2023-08-07T05:04:28;100902.85;;;23.75;27.43
64614;BME280;51025;37.772;-122.432;2023-08-07T05:06:56;100899.54;;;23.87;27.27
64614;BME280;51025;37.772;-122.432;2023-08-07T05:09:25;100903.49;;;23.71;27.26
64614;BME280;51025;37.772;-122.432;2023-08-07T05:11:53;100898.45;;;23.74;27.42
64614;BME280;51025;37.772;-122.432;2023-08-07T05:14:22;100894.14;;;23.78;27.35
64614;BME280;51025;37.772;-122.432;2023-08-07T05:16:50;100892.15;;;23.69;27.39
64614;BME280;51025;37.772;-122.432;2023-08-07T05:19:18;100894.53;;;22.90;27.43
64614;BME280;51025;37.772;-122.432;2023-08-07T05:21:46;100898.60;;;23.98;27.17
64614;BME280;51025;37.772;-122.432;2023-08-07T05:24:15;100896.48;;;22.92;27.29
64614;BME280;51025;37.772;-122.432;2023-08-07T05:26:44;100893.54;;;23.55;27.46
64614;BME280;51025;37.772;-122.432;2023-08-07T05:29:13;100892.55;;;22.69;27.48
64614;BME280;51025;37.772;-122.432;2023-08-07T05:31:41;100893.83;;;23.70;27.21
64614;BME280;51025;37.772;-122.432;2023-08-07T05:34:09;100895.41;;;23.41;27.16
64614;BME280;51025;37.772;-122.432;2023-08-07T05:36:37;100896.50;;;23.79;27.07
64614;BME280;51025;37.772;-122.432;2023-08-07T05:39:07;100896.39;;;23.69;27.25
64614;BME280;51025;37.772;-122.432;2023-08-07T05:41:35;100893.44;;;23.65;27.22
64614;BME280;51025;37.772;-122.432;2023-08-07T05:44:04;100889.01;;;23.79;27.07
64614;BME280;51025;37.772;-122.432;2023-08-07T05:46:32;100887.94;;;23.76;27.05
64614;BME280;51025;37.772;-122.432;2023-08-07T05:49:00;100888.17;;;23.71;27.10
64614;BME280;51025;37.772;-122.432;2023-08-07T05:51:28;100888.43;;;23.94;26.92
64614;BME280;51025;37.772;-122.432;2023-08-07T05:53:57;100892.51;;;23.65;27.07
64614;BME280;51025;37.772;-122.432;2023-08-07T05:56:25;100892.83;;;23.02;26.96
64614;BME280;51025;37.772;-122.432;2023-08-07T05:58:53;100893.22;;;23.81;26.94
64614;BME280;51025;37.772;-122.432;2023-08-07T06:01:22;100895.81;;;22.92;26.98
64614;BME280;51025;37.772;-122.432;2023-08-07T06:03:51;100900.26;;;23.67;27.05
64614;BME280;51025;37.772;-122.432;2023-08-07T06:06:18;100899.04;;;23.39;27.02
64614;BME280;51025;37.772;-122.432;2023-08-07T06:08:46;100897.23;;;23.66;27.06
64614;BME280;51025;37.772;-122.432;2023-08-07T06:11:15;100901.02;;;23.24;27.10
64614;BME280;51025;37.772;-122.432;2023-08-07T06:13:44;100899.21;;;23.53;27.08
64614;BME280;51025;37.772;-122.432;2023-08-07T06:16:11;100897.57;;;23.48;27.18
64614;BME280;51025;37.772;-122.432;2023-08-07T06:18:40;100896.78;;;23.36;27.20
64614;BME280;51025;37.772;-122.432;2023-08-07T06:21:09;100894.88;;;22.58;27.20
64614;BME280;51025;37.772;-122.432;2023-08-07T06:23:37;100894.62;;;23.54;27.01
64614;BME280;51025;37.772;-122.432;2023-08-07T06:26:06;100894.24;;;23.61;26.98
64614;BME280;51025;37.772;-122.432;2023-08-07T06:28:35;100894.92;;;23.56;26.99
64614;BME280;51025;37.772;-122.432;2023-08-07T06:31:06;100893.65;;;23.91;26.97
64614;BME280;51025;37.772;-122.432;2023-08-07T06:33:35;100896.49;;;22.98;27.20
64614;BME280;51025;37.772;-122.432;2023-08-07T06:36:04;100895.45;;;23.35;27.10
64614;BME280;51025;37.772;-122.432;2023-08-07T06:38:33;100903.08;;;23.60;27.22
64614;BME280;51025;37.772;-122.432;2023-08-07T06:41:02;100902.66;;;23.64;27.18
64614;BME280;51025;37.772;-122.432;2023-08-07T06:43:30;100899.62;;;23.35;27.06
64614;BME280;51025;37.772;-122.432;2023-08-07T06:45:59;100899.38;;;23.29;27.07
64614;BME280;51025;37.772;-122.432;2023-08-07T06:48:28;100900.18;;;23.27;27.08
64614;BME280;51025;37.772;-122.432;2023-08-07T06:50:57;100904.55;;;23.38;26.97
64614;BME280;51025;37.772;-122.432;2023-08-07T06:53:25;100906.70;;;23.01;27.01
64614;BME280;51025;37.772;-122.432;2023-08-07T06:55:53;100905.59;;;23.60;27.07
64614;BME280;51025;37.772;-122.432;2023-08-07T06:58:21;100902.15;;;23.28;27.03
64614;BME280;51025;37.772;-122.432;2023-08-07T07:00:50;100901.52;;;23.26;27.03
64614;BME280;51025;37.772;-122.432;2023-08-07T07:03:18;100900.18;;;22.64;26.89
64614;BME280;51025;37.772;-122.432;2023-08-07T07:05:48;100903.11;;;23.67;26.99
64614;BME280;51025;37.772;-122.432;2023-08-07T07:08:17;100905.63;;;22.54;26.92
64614;BME280;51025;37.772;-122.432;2023-08-07T07:10:46;100911.40;;;23.38;26.85
64614;BME280;51025;37.772;-122.432;2023-08-07T07:13:14;100908.16;;;22.96;26.91
64614;BME280;51025;37.772;-122.432;2023-08-07T07:15:42;100907.75;;;23.68;26.87
64614;BME280;51025;37.772;-122.432;2023-08-07T07:18:10;100910.00;;;23.02;26.84
64614;BME280;51025;37.772;-122.432;2023-08-07T07:20:39;100915.09;;;23.42;26.77
64614;BME280;51025;37.772;-122.432;2023-08-07T07:23:08;100921.77;;;22.93;26.88
64614;BME280;51025;37.772;-122.432;2023-08-07T07:25:36;100919.00;;;23.33;26.85
64614;BME280;51025;37.772;-122.432;2023-08-07T07:28:05;100918.78;;;23.35;26.78
64614;BME280;51025;37.772;-122.432;2023-08-07T07:30:33;100918.47;;;23.28;26.85
64614;BME280;51025;37.772;-122.432;2023-08-07T07:33:01;100917.56;;;23.17;26.89
64614;BME280;51025;37.772;-122.432;2023-08-07T07:35:30;100921.70;;;23.35;26.75
64614;BME280;51025;37.772;-122.432;2023-08-07T07:37:58;100920.18;;;23.38;26.70
64614;BME280;51025;37.772;-122.432;2023-08-07T07:40:26;100915.96;;;23.35;26.70
64614;BME280;51025;37.772;-122.432;2023-08-07T07:42:55;100916.63;;;23.56;26.82
64614;BME280;51025;37.772;-122.432;2023-08-07T07:45:23;100914.77;;;22.69;26.92
64614;BME280;51025;37.772;-122.432;2023-08-07T07:47:51;100914.21;;;23.81;26.94
64614;BME280;51025;37.772;-122.432;2023-08-07T07:50:19;100912.07;;;22.93;26.97
64614;BME280;51025;37.772;-122.432;2023-08-07T07:52:47;100912.65;;;22.87;27.04
64614;BME280;51025;37.772;-122.432;2023-08-07T07:55:16;100911.87;;;22.13;27.01
64614;BME280;51025;37.772;-122.432;2023-08-07T07:57:44;100909.39;;;22.83;27.08
64614;BME280;51025;37.772;-122.432;2023-08-07T08:00:14;100908.03;;;22.21;26.95
64614;BME280;51025;37.772;-122.432;2023-08-07T08:02:43;100910.46;;;23.31;26.93
64614;BME280;51025;37.772;-122.432;2023-08-07T08:05:11;100907.63;;;23.71;27.01
64614;BME280;51025;37.772;-122.432;2023-08-07T08:07:40;100907.43;;;22.83;27.01
64614;BME280;51025;37.772;-122.432;2023-08-07T08:10:08;100908.74;;;22.92;26.92
64614;BME280;51025;37.772;-122.432;2023-08-07T08:12:37;100905.98;;;23.22;26.68
64614;BME280;51025;37.772;-122.432;2023-08-07T08:15:06;100902.60;;;23.06;26.83
64614;BME280;51025;37.772;-122.432;2023-08-07T08:17:35;100898.63;;;23.03;26.80
64614;BME280;51025;37.772;-122.432;2023-08-07T08:20:05;100893.75;;;23.27;26.85
64614;BME280;51025;37.772;-122.432;2023-08-07T08:22:33;100892.85;;;23.65;26.91
64614;BME280;51025;37.772;-122.432;2023-08-07T08:25:01;100896.43;;;23.37;26.78
64614;BME280;51025;37.772;-122.432;2023-08-07T08:27:30;100894.10;;;22.91;26.84
64614;BME280;51025;37.772;-122.432;2023-08-07T08:29:58;100891.45;;;22.98;26.75
64614;BME280;51025;37.772;-122.432;2023-08-07T08:32:26;100890.46;;;22.77;26.92
64614;BME280;51025;37.772;-122.432;2023-08-07T08:34:55;100894.03;;;23.17;26.89
64614;BME280;51025;37.772;-122.432;2023-08-07T08:37:23;100894.61;;;22.81;26.89
64614;BME280;51025;37.772;-122.432;2023-08-07T08:39:51;100890.11;;;23.00;26.99
64614;BME280;51025;37.772;-122.432;2023-08-07T08:42:20;100890.57;;;23.22;26.81
64614;BME280;51025;37.772;-122.432;2023-08-07T08:44:52;100887.76;;;23.15;26.88
64614;BME280;51025;37.772;-122.432;2023-08-07T08:47:22;100884.26;;;22.76;26.86
64614;BME280;51025;37.772;-122.432;2023-08-07T08:49:54;100882.70;;;23.39;27.02
64614;BME280;51025;37.772;-122.432;2023-08-07T08:52:26;100882.12;;;22.63;26.97
64614;BME280;51025;37.772;-122.432;2023-08-07T08:54:56;100877.76;;;22.95;26.98
64614;BME280;51025;37.772;-122.432;2023-08-07T08:57:26;100871.74;;;22.66;26.91
64614;BME280;51025;37.772;-122.432;2023-08-07T08:59:54;100871.32;;;23.02;26.93
64614;BME280;51025;37.772;-122.432;2023-08-07T09:02:23;100874.44;;;22.57;26.99
64614;BME280;51025;37.772;-122.432;2023-08-07T09:04:52;100877.23;;;23.57;26.80
64614;BME280;51025;37.772;-122.432;2023-08-07T09:07:21;100875.34;;;22.49;27.05
64614;BME280;51025;37.772;-122.432;2023-08-07T09:09:50;100876.24;;;23.47;26.81
64614;BME280;51025;37.772;-122.432;2023-08-07T09:12:22;100873.52;;;21.83;26.92
64614;BME280;51025;37.772;-122.432;2023-08-07T09:14:56;100873.39;;;23.37;26.91
64614;BME280;51025;37.772;-122.432;2023-08-07T09:17:27;100873.49;;;22.59;26.92
64614;BME280;51025;37.772;-122.432;2023-08-07T09:19:55;100865.79;;;23.14;27.03
64614;BME280;51025;37.772;-122.432;2023-08-07T09:22:23;100861.84;;;22.16;27.21
64614;BME280;51025;37.772;-122.432;2023-08-07T09:24:52;100859.23;;;22.97;27.19
64614;BME280;51025;37.772;-122.432;2023-08-07T09:27:21;100858.23;;;22.08;26.97
64614;BME280;51025;37.772;-122.432;2023-08-07T09:29:49;100858.14;;;23.27;26.92
64614;BME280;51025;37.772;-122.432;2023-08-07T09:32:18;100853.63;;;22.08;26.94
64614;BME280;51025;37.772;-122.432;2023-08-07T09:34:46;100851.05;;;22.73;26.96
64614;BME280;51025;37.772;-122.432;2023-08-07T09:37:14;100852.30;;;23.11;26.98
64614;BME280;51025;37.772;-122.432;2023-08-07T09:39:42;100851.63;;;23.18;27.22
64614;BME280;51025;37.772;-122.432;2023-08-07T09:42:14;100854.33;;;21.94;27.34
64614;BME280;51025;37.772;-122.432;2023-08-07T09:44:43;100856.06;;;22.15;27.15
64614;BME280;51025;37.772;-122.432;2023-08-07T09:47:14;100851.10;;;22.21;27.08
64614;BME280;51025;37.772;-122.432;2023-08-07T09:49:44;100848.31;;;23.05;27.04
64614;BME280;51025;37.772;-122.432;2023-08-07T09:52:15;100844.17;;;22.12;26.85
64614;BME280;51025;37.772;-122.432;2023-08-07T09:54:43;100843.25;;;23.05;26.98
64614;BME280;51025;37.772;-122.432;2023-08-07T09:57:11;100841.33;;;22.87;27.16
64614;BME280;51025;37.772;-122.432;2023-08-07T09:59:41;100838.84;;;22.82;27.19
64614;BME280;51025;37.772;-122.432;2023-08-07T10:02:10;100833.40;;;21.87;27.31
64614;BME280;51025;37.772;-122.432;2023-08-07T10:04:38;100834.24;;;22.11;27.40
64614;BME280;51025;37.772;-122.432;2023-08-07T10:07:08;100832.97;;;22.12;27.13
64614;BME280;51025;37.772;-122.432;2023-08-07T10:09:37;100831.20;;;22.76;27.21
64614;BME280;51025;37.772;-122.432;2023-08-07T10:12:06;100832.31;;;22.15;27.06
64614;BME280;51025;37.772;-122.432;2023-08-07T10:14:35;100832.35;;;22.75;27.22
64614;BME280;51025;37.772;-122.432;2023-08-07T10:17:05;100831.67;;;22.75;27.21
64614;BME280;51025;37.772;-122.432;2023-08-07T10:19:33;100832.37;;;22.82;27.14
64614;BME280;51025;37.772;-122.432;2023-08-07T10:22:01;100830.15;;;22.75;27.19
64614;BME280;51025;37.772;-122.432;2023-08-07T10:24:31;100826.73;;;22.50;27.02
64614;BME280;51025;37.772;-122.432;2023-08-07T10:27:03;100828.74;;;22.83;27.08
64614;BME280;51025;37.772;-122.432;2023-08-07T10:29:33;100829.60;;;22.41;27.06
64614;BME280;51025;37.772;-122.432;2023-08-07T10:32:03;100829.33;;;22.91;26.99
64614;BME280;51025;37.772;-122.432;2023-08-07T10:34:34;100831.21;;;22.96;27.26
64614;BME280;51025;37.772;-122.432;2023-08-07T10:37:03;100826.70;;;22.92;27.27
64614;BME280;51025;37.772;-122.432;2023-08-07T10:39:34;100827.56;;;22.42;27.36
64614;BME280;51025;37.772;-122.432;2023-08-07T10:42:02;100831.16;;;22.71;27.11
64614;BME280;51025;37.772;-122.432;2023-08-07T10:44:31;100833.25;;;22.32;27.09
64614;BME280;51025;37.772;-122.432;2023-08-07T10:46:59;100832.98;;;22.97;27.19
64614;BME280;51025;37.772;-122.432;2023-08-07T10:49:34;100832.68;;;22.02;27.33
64614;BME280;51025;37.772;-122.432;2023-08-07T10:52:07;100838.25;;;22.83;27.29
64614;BME280;51025;37.772;-122.432;2023-08-07T10:54:40;100839.15;;;22.33;27.42
64614;BME280;51025;37.772;-122.432;2023-08-07T10:57:11;100849.16;;;21.51;27.45
64614;BME280;51025;37.772;-122.432;2023-08-07T10:59:48;100845.18;;;22.47;27.32
64614;BME280;51025;37.772;-122.432;2023-08-07T11:02:24;100844.95;;;21.08;27.17
64614;BME280;51025;37.772;-122.432;2023-08-07T11:04:53;100839.75;;;22.78;26.99
64614;BME280;51025;37.772;-122.432;2023-08-07T11:07:26;100839.83;;;22.74;27.03
64614;BME280;51025;37.772;-122.432;2023-08-07T11:09:54;100841.56;;;22.71;27.38
64614;BME280;51025;37.772;-122.432;2023-08-07T11:12:25;100842.58;;;22.19;27.48
64614;BME280;51025;37.772;-122.432;2023-08-07T11:14:53;100843.14;;;22.21;27.48
64614;BME280;51025;37.772;-122.432;2023-08-07T11:17:21;100844.02;;;21.55;27.37
64614;BME280;51025;37.772;-122.432;2023-08-07T11:19:53;100840.44;;;22.31;27.36
64614;BME280;51025;37.772;-122.432;2023-08-07T11:22:21;100838.84;;;22.47;27.23
64614;BME280;51025;37.772;-122.432;2023-08-07T11:24:50;100838.66;;;22.50;27.48
64614;BME280;51025;37.772;-122.432;2023-08-07T11:27:21;100837.96;;;22.49;27.51
64614;BME280;51025;37.772;-122.432;2023-08-07T11:29:49;100840.96;;;22.83;27.56
64614;BME280;51025;37.772;-122.432;2023-08-07T11:32:20;100836.81;;;21.51;27.38
64614;BME280;51025;37.772;-122.432;2023-08-07T11:34:50;100832.53;;;22.24;27.37
64614;BME280;51025;37.772;-122.432;2023-08-07T11:37:18;100829.79;;;21.55;27.30
64614;BME280;51025;37.772;-122.432;2023-08-07T11:39:47;100829.45;;;22.42;27.20
64614;BME280;51025;37.772;-122.432;2023-08-07T11:42:17;100835.39;;;21.46;27.35
64614;BME280;51025;37.772;-122.432;2023-08-07T11:44:45;100837.18;;;22.62;27.31
64614;BME280;51025;37.772;-122.432;2023-08-07T11:47:15;100836.70;;;21.61;27.22
64614;BME280;51025;37.772;-122.432;2023-08-07T11:49:43;100842.85;;;22.44;27.15
64614;BME280;51025;37.772;-122.432;2023-08-07T11:52:12;100845.35;;;22.06;27.46
64614;BME280;51025;37.772;-122.432;2023-08-07T11:54:40;100838.07;;;21.99;27.53
64614;BME280;51025;37.772;-122.432;2023-08-07T11:57:16;100814.81;;;21.63;27.47
64614;BME280;51025;37.772;-122.432;2023-08-07T11:59:50;100808.49;;;22.02;27.48
64614;BME280;51025;37.772;-122.432;2023-08-07T12:02:23;100806.40;;;21.30;27.42
64614;BME280;51025;37.772;-122.432;2023-08-07T12:04:58;100810.82;;;22.56;27.32
64614;BME280;51025;37.772;-122.432;2023-08-07T12:07:26;100801.43;;;22.37;27.44
64614;BME280;51025;37.772;-122.432;2023-08-07T12:09:55;100793.07;;;22.17;27.62
64614;BME280;51025;37.772;-122.432;2023-08-07T12:12:23;100795.83;;;21.77;27.67
64614;BME280;51025;37.772;-122.432;2023-08-07T12:14:54;100793.96;;;22.36;27.46
64614;BME280;51025;37.772;-122.432;2023-08-07T12:17:22;100796.16;;;21.29;27.40
64614;BME280;51025;37.772;-122.432;2023-08-07T12:19:51;100802.53;;;22.53;27.31
64614;BME280;51025;37.772;-122.432;2023-08-07T12:22:20;100804.62;;;21.04;27.32
64614;BME280;51025;37.772;-122.432;2023-08-07T12:24:49;100805.49;;;22.14;27.34
64614;BME280;51025;37.772;-122.432;2023-08-07T12:27:17;100806.75;;;22.12;27.32
64614;BME280;51025;37.772;-122.432;2023-08-07T12:29:45;100808.57;;;22.31;27.47